Time;durP1;ratioP1;P1;durP2;ratioP2;P2;SDS_P1;SDS_P2;PMS_P1;PMS_P2;Temp;Humidity;BMP_temperature;BMP_pressure;BME280_temperature;BME280_humidity;BME280_pressure;Samples;Min_cycle;Max_cycle;Signal;HPM_P1;HPM_P2
2021/01/15 00:00:19;;;;;;;14.98;8.68;;;;;;;-3.32;100.00;96027.63;1035031;28;20253;-73
2021/01/15 00:00:50;;;;;;;13.15;8.43;;;;;;;-3.33;100.00;96023.34;1034586;28;20019;-73
2021/01/15 00:01:21;;;;;;;14.45;8.10;;;;;;;-3.28;100.00;96028.28;1030797;28;20346;-74
2021/01/15 00:01:59;;;;;;;16.65;8.63;;;;;;;-3.26;100.00;96027.28;1038821;28;20045;-73
2021/01/15 00:02:29;;;;;;;17.05;8.65;;;;;;;-3.23;100.00;96027.09;1034807;28;20324;-73
2021/01/15 00:03:00;;;;;;;13.55;8.43;;;;;;;-3.23;100.00;96026.25;1042764;28;20318;-73
2021/01/15 00:03:33;;;;;;;17.00;8.25;;;;;;;-3.25;100.00;96028.94;1038840;28;20049;-73
2021/01/15 00:04:07;;;;;;;16.40;9.65;;;;;;;-3.26;100.00;96027.28;1030414;28;20023;-73
2021/01/15 00:04:37;;;;;;;14.52;8.10;;;;;;;-3.26;100.00;96027.28;1042480;28;20365;-73
2021/01/15 00:05:09;;;;;;;13.23;8.48;;;;;;;-3.28;100.00;96025.69;1030783;28;20328;-74
2021/01/15 00:05:39;;;;;;;13.93;8.65;;;;;;;-3.59;100.00;95975.53;1034675;28;20057;-73
2021/01/15 00:06:19;;;;;;;16.45;9.02;;;;;;;-3.31;100.00;96025.88;1042831;28;20274;-73
2021/01/15 00:06:50;;;;;;;;;;;;;;;-3.33;100.00;96023.34;1047819;28;20013;-73
2021/01/15 00:07:21;;;;;;;14.40;8.23;;;;;;;-3.30;100.00;96019.75;1038928;28;19967;-73
2021/01/15 00:07:51;;;;;;;13.82;8.60;;;;;;;-3.30;100.00;96017.16;1035201;28;20030;-73
2021/01/15 00:08:22;;;;;;;15.18;8.63;;;;;;;-3.26;100.00;96016.91;1039081;28;20307;-73
2021/01/15 00:08:53;;;;;;;17.50;9.10;;;;;;;-3.64;100.00;95968.03;1039398;28;20033;-73
2021/01/15 00:09:24;;;;;;;17.23;9.45;;;;;;;-3.65;100.00;95961.16;1035162;28;20121;-73
2021/01/15 00:09:55;;;;;;;17.15;9.75;;;;;;;-3.41;100.00;95986.63;1035355;28;20253;-73
2021/01/15 00:10:25;;;;;;;17.95;9.23;;;;;;;-3.23;100.00;96016.69;1043609;28;20029;-73
2021/01/15 00:10:57;;;;;;;16.85;9.68;;;;;;;-3.23;100.00;96016.69;1031322;28;20054;-73
2021/01/15 00:11:30;;;;;;;17.95;9.55;;;;;;;-3.26;100.00;96014.31;1027695;29;20007;-73
2021/01/15 00:12:01;;;;;;;17.02;9.60;;;;;;;-3.29;100.00;96014.47;1035401;28;20253;-74
2021/01/15 00:12:32;;;;;;;16.40;8.77;;;;;;;-3.31;100.00;96011.13;1039393;28;20265;-73
2021/01/15 00:13:02;;;;;;;16.67;9.27;;;;;;;-3.29;100.00;96014.47;1040636;28;20036;-74
2021/01/15 00:13:33;;;;;;;16.77;10.43;;;;;;;-3.27;100.00;96017.81;1035450;28;20253;-74
2021/01/15 00:14:05;;;;;;;15.98;9.23;;;;;;;-3.26;100.00;96016.03;1031891;28;20073;-72
2021/01/15 00:14:36;;;;;;;14.75;9.20;;;;;;;-3.24;100.00;96019.38;1047532;28;20021;-73
2021/01/15 00:15:07;;;;;;;13.88;8.77;;;;;;;-3.27;100.00;96023.00;1035860;28;20254;-73
2021/01/15 00:15:38;;;;;;;17.45;8.80;;;;;;;-3.28;100.00;96018.72;1035703;28;20022;-73
2021/01/15 00:16:18;;;;;;;15.40;9.43;;;;;;;-3.70;100.00;95958.00;1039608;28;20352;-73
2021/01/15 00:16:51;;;;;;;15.13;8.05;;;;;;;-3.62;100.00;95966.19;1035606;28;20066;-73
2021/01/15 00:17:22;;;;;;;15.80;9.10;;;;;;;-3.27;100.00;96023.00;1035635;28;20261;-73
2021/01/15 00:17:53;;;;;;;14.88;9.02;;;;;;;-3.31;100.00;96016.34;1039800;28;20338;-73
2021/01/15 00:18:24;;;;;;;19.17;9.93;;;;;;;-3.30;100.00;96025.78;1031304;28;20343;-73
2021/01/15 00:18:55;;;;;;;16.92;8.95;;;;;;;-3.33;100.00;96025.94;1039747;28;20056;-73
2021/01/15 00:19:26;;;;;;;16.80;9.68;;;;;;;-3.36;100.00;96025.28;1043826;28;20021;-73
2021/01/15 00:19:57;;;;;;;16.35;8.90;;;;;;;-3.33;100.00;96022.53;1039600;28;20264;-73
2021/01/15 00:20:28;;;;;;;17.38;9.43;;;;;;;-3.34;100.00;96021.69;1043613;28;20081;-73
2021/01/15 00:20:58;;;;;;;21.48;9.75;;;;;;;-3.33;100.00;96020.75;1039916;28;20022;-73
2021/01/15 00:21:31;;;;;;;15.18;9.27;;;;;;;-3.35;100.00;96022.59;1047900;28;20024;-73
2021/01/15 00:22:01;;;;;;;16.25;9.65;;;;;;;-3.35;100.00;96025.19;1035414;28;20023;-73
2021/01/15 00:22:32;;;;;;;17.63;10.20;;;;;;;-3.38;100.00;96019.34;1039409;28;20256;-73
2021/01/15 00:23:03;;;;;;;18.40;9.48;;;;;;;-3.40;100.00;96022.03;1043480;28;20103;-73
2021/01/15 00:23:34;;;;;;;20.85;9.15;;;;;;;-3.39;100.00;96023.72;1039214;28;20080;-73
2021/01/15 00:24:05;;;;;;;16.25;9.48;;;;;;;-3.37;100.00;96016.66;1043071;28;20152;-73
2021/01/15 00:24:36;;;;;;;16.30;9.45;;;;;;;-3.36;100.00;96017.50;1038759;28;20093;-73
2021/01/15 00:25:07;;;;;;;16.02;8.90;;;;;;;-3.36;100.00;96022.69;1030494;28;20345;-73
2021/01/15 00:25:38;;;;;;;17.23;9.50;;;;;;;-3.59;100.00;95975.53;1044360;28;20021;-74
2021/01/15 00:26:20;;;;;;;15.88;9.77;;;;;;;-3.30;100.00;96024.94;1039088;28;20265;-73
2021/01/15 00:26:51;;;;;;;18.23;9.50;;;;;;;-3.34;100.00;96019.09;1038792;28;20040;-73
2021/01/15 00:27:22;;;;;;;17.05;8.40;;;;;;;-3.32;100.00;96014.66;1043088;28;20252;-73
2021/01/15 00:27:52;;;;;;;18.15;9.65;;;;;;;-3.51;100.00;95988.09;1031232;28;20337;-73
2021/01/15 00:28:23;;;;;;;14.68;9.30;;;;;;;-3.63;100.00;95967.09;1035193;28;20045;-74
2021/01/15 00:28:54;;;;;;;18.92;9.73;;;;;;;-3.71;100.00;95969.31;1043329;28;20024;-73
2021/01/15 00:29:27;;;;;;;17.88;9.80;;;;;;;-3.33;100.00;96022.53;1038971;28;20494;-73
2021/01/15 00:29:57;;;;;;;17.27;9.63;;;;;;;-3.30;100.00;96017.16;1038472;28;20360;-74
2021/01/15 00:30:28;;;;;;;16.65;9.48;;;;;;;-3.34;100.00;96013.09;1023926;29;20639;-73
2021/01/15 00:30:59;;;;;;;16.10;9.55;;;;;;;-3.40;100.00;96003.88;1040040;28;20117;-73
2021/01/15 00:31:32;;;;;;;15.27;9.68;;;;;;;-3.30;100.00;96022.34;1028008;28;20019;-74
2021/01/15 00:32:03;;;;;;;17.40;9.65;;;;;;;-3.38;100.00;96006.38;1036181;28;20458;-73
2021/01/15 00:32:35;;;;;;;16.95;9.45;;;;;;;-3.30;100.00;96022.34;1040138;28;20668;-74
2021/01/15 00:33:06;;;;;;;17.75;10.27;;;;;;;-3.27;100.00;96022.19;1031801;28;20253;-74
2021/01/15 00:33:37;;;;;;;18.05;9.82;;;;;;;-3.31;100.00;96021.53;1044356;28;20273;-73
2021/01/15 00:34:10;;;;;;;17.70;9.88;;;;;;;-3.30;100.00;96028.38;1036052;28;20014;-74
2021/01/15 00:34:41;;;;;;;16.92;9.55;;;;;;;-3.31;100.00;96031.06;1027586;28;20023;-73
2021/01/15 00:35:12;;;;;;;18.27;9.45;;;;;;;-3.29;100.00;96029.19;1035435;28;20253;-73
2021/01/15 00:35:43;;;;;;;16.33;9.13;;;;;;;-3.31;100.00;96029.31;1039901;28;20548;-73
2021/01/15 00:36:14;;;;;;;15.05;10.27;;;;;;;-3.50;100.00;96000.13;1036212;28;20264;-73
2021/01/15 00:36:46;;;;;;;16.60;9.32;;;;;;;-3.35;100.00;96022.59;1040227;28;20535;-73
2021/01/15 00:37:17;;;;;;;15.40;9.85;;;;;;;-3.34;100.00;96026.88;1035765;28;20030;-74
2021/01/15 00:37:49;;;;;;;15.32;9.65;;;;;;;-3.32;100.00;96027.63;1024051;29;20786;-73
2021/01/15 00:38:20;;;;;;;16.67;10.07;;;;;;;-3.32;100.00;96022.44;1032004;28;20061;-74
2021/01/15 00:38:54;;;;;;;16.08;9.07;;;;;;;-3.28;100.00;96029.13;1040100;28;20274;-74
2021/01/15 00:39:24;;;;;;;15.50;8.90;;;;;;;-3.33;100.00;96025.94;1031692;28;20068;-73
2021/01/15 00:39:55;;;;;;;16.23;8.95;;;;;;;-3.36;100.00;96027.88;1032001;28;20650;-73
2021/01/15 00:40:26;;;;;;;15.88;8.23;;;;;;;-3.38;100.00;96030.56;1028005;28;20050;-73
2021/01/15 00:40:58;;;;;;;17.23;8.70;;;;;;;-3.36;100.00;96028.75;1032063;28;20015;-74
2021/01/15 00:41:33;;;;;;;19.05;9.20;;;;;;;-3.36;100.00;96038.28;1040162;28;20021;-73
2021/01/15 00:42:04;;;;;;;16.85;9.13;;;;;;;-3.38;100.00;96033.16;1040346;28;20550;-73
2021/01/15 00:42:35;;;;;;;13.82;8.52;;;;;;;-3.38;100.00;96025.38;1040114;28;20264;-73
2021/01/15 00:43:05;;;;;;;15.15;8.52;;;;;;;-3.45;100.00;96014.53;1035982;28;20759;-74
2021/01/15 00:43:36;;;;;;;15.95;8.38;;;;;;;-3.35;100.00;96029.56;1031783;28;20018;-73
2021/01/15 00:44:08;;;;;;;19.25;8.70;;;;;;;-3.41;100.00;96025.56;1036169;28;20407;-73
2021/01/15 00:44:43;;;;;;;17.65;8.68;;;;;;;-3.43;100.00;96028.25;1036151;28;20093;-74
2021/01/15 00:45:22;;;;;;;17.70;8.98;;;;;;;-3.37;100.00;96021.88;1040005;28;20780;-73
2021/01/15 00:45:53;;;;;;;14.45;8.75;;;;;;;-3.35;100.00;96030.41;1036105;28;20272;-73
2021/01/15 00:46:34;;;;;;;13.30;8.45;;;;;;;-3.40;100.00;96022.03;1041819;28;20049;-72
2021/01/15 00:47:05;;;;;;;14.40;8.25;;;;;;;-3.41;100.00;96021.22;1042948;28;20017;-72
2021/01/15 00:47:35;;;;;;;17.45;9.75;;;;;;;-3.42;100.00;96023.88;1032070;28;20250;-73
2021/01/15 00:48:06;;;;;;;20.38;9.30;;;;;;;-3.42;100.00;96023.88;1035996;28;20025;-73
2021/01/15 00:48:38;;;;;;;15.20;8.75;;;;;;;-3.51;100.00;96011.44;1036025;28;20025;-73
2021/01/15 00:49:09;;;;;;;17.20;8.43;;;;;;;-3.47;100.00;96018.97;1027962;28;20027;-72
2021/01/15 00:49:40;;;;;;;17.65;8.50;;;;;;;-3.40;100.00;96032.41;1035823;28;20261;-73
2021/01/15 00:50:12;;;;;;;15.05;9.13;;;;;;;-3.42;100.00;96029.09;1035996;28;20050;-74
2021/01/15 00:50:43;;;;;;;14.40;7.82;;;;;;;-3.44;100.00;96026.56;1032067;28;20018;-73
2021/01/15 00:51:13;;;;;;;14.80;8.60;;;;;;;-3.50;100.00;96028.69;1044127;28;20728;-73
2021/01/15 00:51:49;;;;;;;15.95;8.85;;;;;;;-3.51;100.00;96029.63;1035816;28;20025;-73
2021/01/15 00:52:20;;;;;;;18.00;8.93;;;;;;;-3.46;100.00;96027.59;1031962;28;20022;-73
2021/01/15 00:52:52;;;;;;;19.40;8.95;;;;;;;-3.45;100.00;96027.50;1040089;28;20287;-73
2021/01/15 00:53:23;;;;;;;19.77;9.55;;;;;;;-3.51;100.00;96024.44;1032129;28;20072;-73
2021/01/15 00:53:54;;;;;;;14.00;8.30;;;;;;;-3.52;100.00;96033.13;1027831;28;20262;-73
2021/01/15 00:54:25;;;;;;;16.92;8.63;;;;;;;-3.58;100.00;96012.72;1040033;28;20430;-73
2021/01/15 00:54:55;;;;;;;15.50;9.02;;;;;;;-3.48;100.00;96034.66;1040184;28;20488;-73
2021/01/15 00:55:26;;;;;;;21.65;9.30;;;;;;;-3.52;100.00;96025.34;1039988;28;20465;-73
2021/01/15 00:55:57;;;;;;;16.38;8.90;;;;;;;-3.55;100.00;96022.91;1040034;28;20460;-73
2021/01/15 00:56:28;;;;;;;21.77;9.45;;;;;;;-3.51;100.00;96019.25;1032200;28;20186;-73
2021/01/15 00:56:59;;;;;;;15.65;9.10;;;;;;;-3.55;100.00;96018.59;1032004;28;20061;-73
2021/01/15 00:57:30;;;;;;;15.73;8.90;;;;;;;-3.53;100.00;96028.88;1031889;28;20019;-73
2021/01/15 00:58:02;;;;;;;17.15;9.52;;;;;;;-3.54;100.00;96019.41;1031878;28;20266;-73
2021/01/15 00:58:33;;;;;;;17.13;9.70;;;;;;;-3.61;100.00;96011.97;1035948;28;20022;-73
2021/01/15 00:59:04;;;;;;;17.92;8.88;;;;;;;-3.63;100.00;96005.19;1035954;28;20260;-73
2021/01/15 00:59:34;;;;;;;16.63;9.30;;;;;;;-3.90;100.00;95959.16;1031931;28;20106;-73
2021/01/15 01:00:06;;;;;;;16.42;10.15;;;;;;;-3.56;100.00;96021.25;1044099;28;20025;-73
2021/01/15 01:00:37;;;;;;;17.15;9.60;;;;;;;-3.61;100.00;96011.13;1044187;28;20029;-73
2021/01/15 01:01:12;;;;;;;16.75;10.00;;;;;;;-3.65;100.00;96007.06;1036026;28;20796;-73
2021/01/15 01:01:43;;;;;;;16.27;9.80;;;;;;;-3.60;100.00;96021.44;1031844;28;20578;-73
2021/01/15 01:02:13;;;;;;;16.40;8.52;;;;;;;-3.61;100.00;96014.56;1035751;28;20314;-73
2021/01/15 01:02:44;;;;;;;22.95;10.48;;;;;;;-3.62;100.00;96012.06;1032011;28;20033;-73
2021/01/15 01:03:15;;;;;;;17.08;9.20;;;;;;;-3.64;100.00;96013.91;1031778;28;20617;-73
2021/01/15 01:03:46;;;;;;;17.23;9.35;;;;;;;-3.61;100.00;96014.56;1040004;28;20041;-73
2021/01/15 01:04:17;;;;;;;14.65;9.00;;;;;;;-3.61;100.00;96019.75;1031696;28;20026;-73
2021/01/15 01:04:49;;;;;;;16.05;9.65;;;;;;;-3.62;100.00;96012.91;1040097;28;20267;-73
2021/01/15 01:05:21;;;;;;;14.27;9.23;;;;;;;-3.62;100.00;96012.06;1031816;28;20030;-73
2021/01/15 01:05:52;;;;;;;17.10;10.23;;;;;;;-3.61;100.00;96024.09;1031892;28;20798;-73
2021/01/15 01:06:23;;;;;;;16.95;9.40;;;;;;;-3.63;100.00;96018.16;1031658;28;20277;-73
2021/01/15 01:06:54;;;;;;;22.35;10.65;;;;;;;-3.64;100.00;96019.94;1035939;28;20272;-73
2021/01/15 01:07:25;;;;;;;17.45;10.25;;;;;;;-3.63;100.00;96020.78;1040137;28;20028;-73
2021/01/15 01:07:56;;;;;;;17.70;10.00;;;;;;;-3.66;100.00;96011.41;1031999;28;20018;-73
2021/01/15 01:08:27;;;;;;;17.15;9.98;;;;;;;-3.64;100.00;96016.50;1035827;28;20271;-73
2021/01/15 01:09:02;;;;;;;14.38;9.40;;;;;;;-3.96;100.00;95959.50;1031791;28;20026;-74
2021/01/15 01:09:33;;;;;;;20.80;10.40;;;;;;;-3.68;100.00;96012.41;1035883;28;20040;-73
2021/01/15 01:10:06;;;;;;;20.38;11.10;;;;;;;-3.66;100.00;96016.59;1027893;28;20258;-73
2021/01/15 01:10:38;;;;;;;18.02;10.10;;;;;;;-3.65;100.00;96012.25;1031867;28;20026;-73
2021/01/15 01:11:24;;;;;;;15.98;10.05;;;;;;;-3.65;100.00;96015.66;1027983;28;20249;-73
2021/01/15 01:11:57;;;;;;;22.50;12.25;;;;;;;-3.69;100.00;96024.56;1027929;28;20282;-73
2021/01/15 01:12:28;;;;;;;18.77;10.57;;;;;;;-3.74;100.00;96012.78;1039805;28;20620;-73
2021/01/15 01:12:59;;;;;;;18.67;10.63;;;;;;;-3.76;100.00;96009.41;1031785;28;20253;-73
2021/01/15 01:13:30;;;;;;;18.48;10.95;;;;;;;-3.72;100.00;96021.31;1036172;28;20025;-73
2021/01/15 01:14:01;;;;;;;17.23;10.80;;;;;;;-3.68;100.00;96023.63;1031828;28;20080;-73
2021/01/15 01:14:31;;;;;;;16.88;10.30;;;;;;;-3.68;100.00;96021.03;1031759;28;20022;-73
2021/01/15 01:15:03;;;;;;;17.15;10.30;;;;;;;-3.69;100.00;96021.97;1031712;28;20646;-73
2021/01/15 01:15:34;;;;;;;19.42;11.23;;;;;;;-3.79;100.00;96018.22;1023974;29;20094;-73
2021/01/15 01:16:05;;;;;;;20.92;11.18;;;;;;;-3.79;100.00;96013.03;1035819;28;20630;-73
2021/01/15 01:16:35;;;;;;;22.02;10.93;;;;;;;-3.70;100.00;96024.63;1031696;28;20082;-73
2021/01/15 01:17:06;;;;;;;19.83;9.80;;;;;;;-3.74;100.00;96023.16;1027739;28;20034;-73
2021/01/15 01:17:38;;;;;;;19.30;10.80;;;;;;;-3.75;100.00;96017.09;1035862;28;20031;-73
2021/01/15 01:18:09;;;;;;;19.80;10.35;;;;;;;-3.78;100.00;96017.28;1027864;28;20015;-73
2021/01/15 01:18:40;;;;;;;18.70;11.05;;;;;;;-3.77;100.00;96016.38;1031906;28;20245;-73
2021/01/15 01:19:10;;;;;;;19.27;10.25;;;;;;;-3.76;100.00;96019.78;1043995;28;20100;-73
2021/01/15 01:19:41;;;;;;;23.80;10.95;;;;;;;-3.78;100.00;96014.69;1040187;28;20036;-73
2021/01/15 01:20:13;;;;;;;19.23;10.95;;;;;;;-3.81;100.00;96014.88;1039931;28;20385;-73
2021/01/15 01:20:43;;;;;;;18.83;11.23;;;;;;;-3.83;100.00;96016.69;1039972;28;20608;-73
2021/01/15 01:21:14;;;;;;;21.38;10.77;;;;;;;-3.84;100.00;96015.03;1035740;28;20256;-73
2021/01/15 01:21:45;;;;;;;19.42;10.45;;;;;;;-3.85;100.00;96021.13;1031870;28;20022;-73
2021/01/15 01:22:16;;;;;;;22.98;11.52;;;;;;;-3.91;100.00;96013.72;1039811;28;20408;-73
2021/01/15 01:22:54;;;;;;;20.60;11.05;;;;;;;-3.88;100.00;96022.16;1035886;28;20048;-73
2021/01/15 01:23:25;;;;;;;22.38;10.90;;;;;;;-3.90;100.00;96024.00;1031752;28;20164;-73
2021/01/15 01:23:55;;;;;;;18.67;10.77;;;;;;;-3.92;100.00;96020.63;1035920;28;20331;-73
2021/01/15 01:24:26;;;;;;;18.00;10.52;;;;;;;-3.99;100.00;96008.94;1035965;28;20014;-73
2021/01/15 01:24:57;;;;;;;18.70;10.25;;;;;;;-4.00;100.00;96015.06;1031789;28;20046;-73
2021/01/15 01:25:28;;;;;;;18.35;11.05;;;;;;;-3.92;100.00;96014.63;1027734;28;20102;-73
2021/01/15 01:25:59;;;;;;;18.02;10.85;;;;;;;-3.95;100.00;96019.97;1031947;28;20442;-73
2021/01/15 01:26:30;;;;;;;18.75;10.88;;;;;;;-4.01;100.00;96005.59;1035905;28;20353;-73
2021/01/15 01:27:01;;;;;;;17.63;9.98;;;;;;;-3.92;100.00;96025.00;1035780;28;20390;-73
2021/01/15 01:27:32;;;;;;;17.63;10.70;;;;;;;-3.94;100.00;96022.50;1048244;28;20384;-73
2021/01/15 01:28:03;;;;;;;20.38;11.00;;;;;;;-3.98;100.00;96024.41;1044217;28;20271;-73
2021/01/15 01:28:34;;;;;;;19.60;12.35;;;;;;;-3.93;100.00;96023.34;1035944;28;20032;-73
2021/01/15 01:29:05;;;;;;;18.50;10.48;;;;;;;-3.95;100.00;96019.97;1039971;28;20251;-73
2021/01/15 01:29:36;;;;;;;21.83;11.60;;;;;;;-3.98;100.00;96016.63;1031710;28;20049;-73
2021/01/15 01:30:07;;;;;;;17.67;11.13;;;;;;;-3.92;100.00;96018.03;1027843;28;20026;-73
2021/01/15 01:30:38;;;;;;;19.75;11.05;;;;;;;-3.90;100.00;96029.19;1031873;28;20117;-74
2021/01/15 01:31:10;;;;;;;21.75;11.20;;;;;;;-3.92;100.00;96019.81;1039910;28;20257;-73
2021/01/15 01:31:41;;;;;;;19.40;11.23;;;;;;;-3.88;100.00;96021.34;1031846;28;20022;-72
2021/01/15 01:32:11;;;;;;;22.23;11.75;;;;;;;-3.91;100.00;96026.69;1039923;28;20741;-73
2021/01/15 01:32:43;;;;;;;20.92;11.70;;;;;;;-3.93;100.00;96020.75;1031913;28;20092;-73
2021/01/15 01:33:14;;;;;;;18.55;11.40;;;;;;;-3.91;100.00;96021.50;1023866;29;20023;-73
2021/01/15 01:33:45;;;;;;;19.50;10.85;;;;;;;-3.95;100.00;96026.03;1035733;28;20299;-73
2021/01/15 01:34:16;;;;;;;18.95;11.27;;;;;;;-3.96;100.00;96018.31;1031875;28;20026;-73
2021/01/15 01:34:47;;;;;;;19.30;11.20;;;;;;;-3.96;100.00;96026.94;1027791;28;20281;-73
2021/01/15 01:35:18;;;;;;;17.38;9.68;;;;;;;-3.98;100.00;96021.81;1035935;28;20654;-73
2021/01/15 01:35:49;;;;;;;16.88;10.48;;;;;;;-3.98;100.00;96027.00;1043918;28;20033;-73
2021/01/15 01:36:20;;;;;;;17.70;10.27;;;;;;;-3.98;100.00;96024.41;1027791;28;20857;-73
2021/01/15 01:36:51;;;;;;;22.92;11.55;;;;;;;-4.07;100.00;96009.38;1035832;28;20292;-73
2021/01/15 01:37:21;;;;;;;19.35;12.15;;;;;;;-4.01;100.00;96026.34;1035883;28;20135;-73
2021/01/15 01:37:52;;;;;;;16.85;9.93;;;;;;;-4.01;100.00;96031.53;1031710;28;20096;-73
2021/01/15 01:38:23;;;;;;;17.30;10.77;;;;;;;-4.03;100.00;96025.59;1035908;28;20021;-73
2021/01/15 01:38:54;;;;;;;18.42;10.63;;;;;;;-4.06;100.00;96028.34;1035803;28;20112;-73
2021/01/15 01:39:25;;;;;;;18.23;10.68;;;;;;;-4.06;100.00;96023.16;1035937;28;20044;-73
2021/01/15 01:39:55;;;;;;;19.20;10.60;;;;;;;-4.17;100.00;96010.81;1031811;28;20092;-73
2021/01/15 01:40:26;;;;;;;20.40;11.35;;;;;;;-4.05;100.00;96028.28;1040144;28;20071;-73
2021/01/15 01:40:57;;;;;;;18.88;10.80;;;;;;;-4.04;100.00;96029.97;1031721;28;20015;-73
2021/01/15 01:41:28;;;;;;;18.98;10.05;;;;;;;-4.04;100.00;96027.38;1035864;28;20067;-73
2021/01/15 01:41:59;;;;;;;20.20;10.60;;;;;;;-4.04;100.00;96022.19;1035814;28;20326;-73
2021/01/15 01:42:30;;;;;;;17.73;10.00;;;;;;;-4.05;100.00;96023.09;1035970;28;20061;-73
2021/01/15 01:43:01;;;;;;;20.40;10.27;;;;;;;-4.04;100.00;96027.38;1031884;28;20437;-74
2021/01/15 01:43:32;;;;;;;20.05;10.80;;;;;;;-4.05;100.00;96028.28;1039876;28;20025;-73
2021/01/15 01:44:03;;;;;;;19.70;10.43;;;;;;;-4.07;100.00;96027.53;1031646;28;20262;-73
2021/01/15 01:44:33;;;;;;;16.05;10.55;;;;;;;-4.04;100.00;96027.38;1035946;28;20099;-74
2021/01/15 01:45:05;;;;;;;17.85;11.63;;;;;;;-4.12;100.00;96013.16;1039984;28;20175;-73
2021/01/15 01:45:36;;;;;;;18.50;10.57;;;;;;;-4.09;100.00;96021.59;1031847;28;20026;-73
2021/01/15 01:46:07;;;;;;;21.42;11.40;;;;;;;-4.11;100.00;96018.25;1027695;28;20309;-73
2021/01/15 01:46:38;;;;;;;17.38;10.02;;;;;;;-4.07;100.00;96027.53;1035517;28;20052;-73
2021/01/15 01:47:09;;;;;;;17.85;10.23;;;;;;;-4.13;100.00;96021.84;1039936;28;20586;-73
2021/01/15 01:47:40;;;;;;;21.23;11.02;;;;;;;-4.09;100.00;96031.97;1044081;28;20266;-73
2021/01/15 01:48:11;;;;;;;17.27;10.02;;;;;;;-4.07;100.00;96031.88;1043974;28;20021;-73
2021/01/15 01:48:42;;;;;;;20.02;10.95;;;;;;;-4.09;100.00;96025.94;1027846;28;20125;-73
2021/01/15 01:49:13;;;;;;;17.02;10.23;;;;;;;-4.08;100.00;96030.19;1035984;28;20056;-73
2021/01/15 01:49:45;;;;;;;17.98;10.38;;;;;;;-4.11;100.00;96028.63;1043991;28;20031;-73
2021/01/15 01:50:16;;;;;;;18.40;10.85;;;;;;;-4.12;100.00;96029.53;1027684;28;20269;-73
2021/01/15 01:50:47;;;;;;;20.13;10.75;;;;;;;-4.13;100.00;96035.63;1035838;28;20297;-73
2021/01/15 01:51:18;;;;;;;16.35;10.45;;;;;;;-4.17;100.00;96024.59;1036043;28;20022;-73
2021/01/15 01:51:49;;;;;;;20.23;9.98;;;;;;;-4.12;100.00;96028.72;1035847;28;20253;-73
2021/01/15 01:52:20;;;;;;;16.08;10.18;;;;;;;-4.15;100.00;96034.06;1039701;28;20068;-73
2021/01/15 01:52:51;;;;;;;18.35;10.38;;;;;;;-4.11;100.00;96032.97;1027775;28;20034;-73
2021/01/15 01:53:24;;;;;;;19.67;10.63;;;;;;;-4.20;100.00;96021.34;1044032;28;20116;-73
2021/01/15 01:53:55;;;;;;;18.27;10.10;;;;;;;-4.11;100.00;96032.97;1035847;28;20391;-73
2021/01/15 01:54:26;;;;;;;17.65;10.50;;;;;;;-4.12;100.00;96033.91;1035708;28;20260;-73
2021/01/15 01:54:57;;;;;;;18.85;9.73;;;;;;;-4.18;100.00;96028.13;1031904;28;20707;-73
2021/01/15 01:55:28;;;;;;;16.67;10.38;;;;;;;-4.17;100.00;96031.53;1027786;28;20277;-73
2021/01/15 01:56:02;;;;;;;20.20;10.02;;;;;;;-4.18;100.00;96035.03;1039946;28;20252;-73
2021/01/15 01:56:32;;;;;;;18.63;10.65;;;;;;;-4.17;100.00;96034.13;1035687;28;20026;-73
2021/01/15 01:57:04;;;;;;;18.65;10.75;;;;;;;-4.23;100.00;96029.28;1035817;28;20672;-73
2021/01/15 01:57:35;;;;;;;19.65;10.18;;;;;;;-4.15;100.00;96031.47;1036052;28;20018;-73
2021/01/15 01:58:06;;;;;;;17.77;10.32;;;;;;;-4.20;100.00;96029.97;1031769;28;20328;-73
2021/01/15 01:58:37;;;;;;;20.02;10.95;;;;;;;-4.19;100.00;96042.00;1035685;28;20323;-73
2021/01/15 01:59:08;;;;;;;16.77;9.65;;;;;;;-4.17;100.00;96032.38;1040094;28;20021;-73
2021/01/15 01:59:38;;;;;;;19.27;11.02;;;;;;;-4.18;100.00;96030.72;1031758;28;20722;-72
2021/01/15 02:00:10;;;;;;;17.65;10.35;;;;;;;-4.21;100.00;96030.06;1027704;28;20027;-73
2021/01/15 02:00:41;;;;;;;16.95;9.88;;;;;;;-4.20;100.00;96035.16;1039862;28;20520;-73
2021/01/15 02:01:12;;;;;;;18.45;10.18;;;;;;;-4.29;100.00;96019.25;1035812;28;20264;-73
2021/01/15 02:01:43;;;;;;;16.73;10.00;;;;;;;-4.27;100.00;96032.97;1035870;28;20038;-73
2021/01/15 02:02:14;;;;;;;18.85;10.50;;;;;;;-4.25;100.00;96036.31;1031820;28;20443;-73
2021/01/15 02:02:45;;;;;;;17.80;9.95;;;;;;;-4.26;100.00;96026.88;1031590;28;20265;-73
2021/01/15 02:03:16;;;;;;;20.20;10.50;;;;;;;-4.34;100.00;96014.31;1031633;28;20164;-73
2021/01/15 02:03:47;;;;;;;19.02;10.48;;;;;;;-4.24;100.00;96028.44;1035649;28;20067;-73
2021/01/15 02:04:18;;;;;;;18.45;10.52;;;;;;;-4.26;100.00;96026.88;1031731;28;20352;-72
2021/01/15 02:04:49;;;;;;;17.42;10.80;;;;;;;-4.22;100.00;96029.19;1035612;28;20026;-73
2021/01/15 02:05:20;;;;;;;15.50;10.15;;;;;;;-4.27;100.00;96032.97;1035753;28;20108;-73
2021/01/15 02:05:50;;;;;;;19.80;11.60;;;;;;;-4.44;100.00;96013.13;1031854;28;20262;-73
2021/01/15 02:06:21;;;;;;;17.98;10.73;;;;;;;-4.29;100.00;96040.00;1035799;28;20022;-73
2021/01/15 02:06:52;;;;;;;17.40;9.93;;;;;;;-4.31;100.00;96039.25;1031627;28;20030;-73
2021/01/15 02:07:23;;;;;;;18.30;9.85;;;;;;;-4.39;100.00;96026.69;1039803;28;20306;-73
2021/01/15 02:07:54;;;;;;;17.40;9.65;;;;;;;-4.32;100.00;96034.97;1031731;28;20117;-73
2021/01/15 02:08:32;;;;;;;17.58;9.45;;;;;;;-4.37;100.00;96030.88;1031801;28;20022;-73
2021/01/15 02:09:05;;;;;;;17.00;10.02;;;;;;;-4.32;100.00;96040.16;1035575;28;20048;-73
2021/01/15 02:09:55;;;;;;;17.17;9.38;;;;;;;-4.31;100.00;96039.25;1035969;28;20656;-73
2021/01/15 02:10:32;;;;;;;16.80;10.27;;;;;;;-4.33;100.00;96038.50;1035814;28;20268;-73
2021/01/15 02:11:13;;;;;;;16.15;9.65;;;;;;;-4.37;100.00;96035.22;1039821;28;20278;-73
2021/01/15 02:12:01;;;;;;;17.17;9.45;;;;;;;-4.49;100.00;96021.16;1039969;28;20740;-73
2021/01/15 02:12:43;;;;;;;18.05;9.68;;;;;;;-4.39;100.00;96034.44;1031787;28;20258;-73
2021/01/15 02:13:21;;;;;;;19.85;9.05;;;;;;;-4.40;100.00;96036.22;1039826;28;20279;-73
2021/01/15 02:14:07;;;;;;;16.88;9.27;;;;;;;-4.51;100.00;96022.16;1031723;28;20297;-73
2021/01/15 02:14:55;;;;;;;17.50;8.85;;;;;;;-4.46;100.00;96031.38;1027652;28;20734;-73
2021/01/15 02:15:30;;;;;;;19.45;10.48;;;;;;;-4.44;100.00;96034.72;1031681;28;20273;-73
2021/01/15 02:16:02;;;;;;;18.25;10.40;;;;;;;-4.49;100.00;96030.69;1035841;28;20245;-73
2021/01/15 02:16:33;;;;;;;17.20;9.10;;;;;;;-4.50;100.00;96035.03;1031869;28;20376;-73
2021/01/15 02:17:04;;;;;;;16.38;9.43;;;;;;;-4.51;100.00;96038.56;1039752;28;20756;-73
2021/01/15 02:17:38;;;;;;;17.27;10.15;;;;;;;-4.51;100.00;96042.88;1027631;28;20246;-73
2021/01/15 02:18:14;;;;;;;17.17;9.98;;;;;;;-4.52;100.00;96033.47;1035870;28;20014;-73
2021/01/15 02:18:47;;;;;;;16.80;9.40;;;;;;;-4.58;100.00;96019.06;1035890;28;20336;-73
2021/01/15 02:19:35;;;;;;;19.25;10.10;;;;;;;-4.53;100.00;96040.38;1035757;28;20249;-73
2021/01/15 02:20:15;;;;;;;17.80;9.77;;;;;;;-4.52;100.00;96033.47;1039842;28;20339;-73
2021/01/15 02:20:50;;;;;;;;;;;;;;;-4.52;100.00;96031.69;1040194;28;20272;-73
2021/01/15 02:21:43;;;;;;;17.63;9.65;;;;;;;-4.56;100.00;96037.97;1035681;28;20374;-73
2021/01/15 02:22:34;;;;;;;17.52;9.68;;;;;;;-4.86;100.00;95992.03;1035888;28;20311;-74
2021/01/15 02:23:18;;;;;;;18.20;8.48;;;;;;;-4.57;100.00;96036.28;1031748;28;20262;-73
2021/01/15 02:23:49;;;;;;;18.42;9.48;;;;;;;-4.60;100.00;96042.47;1035843;28;20258;-73
2021/01/15 02:24:33;;;;;;;14.75;9.75;;;;;;;-4.58;100.00;96037.19;1044028;28;20231;-73
2021/01/15 02:25:24;;;;;;;19.02;10.00;;;;;;;-4.60;100.00;96036.44;1035874;28;20249;-72
2021/01/15 02:26:15;;;;;;;15.68;8.13;;;;;;;-4.66;100.00;96034.19;1039548;28;20280;-73
2021/01/15 02:27:05;;;;;;;20.90;10.02;;;;;;;-4.70;100.00;96027.47;1027668;28;20689;-73
2021/01/15 02:27:55;;;;;;;18.90;9.43;;;;;;;-4.72;100.00;96030.16;1031631;28;20277;-73
2021/01/15 02:28:45;;;;;;;16.02;8.80;;;;;;;-4.69;100.00;96036.94;1031729;28;20337;-73
2021/01/15 02:29:19;;;;;;;18.33;8.82;;;;;;;-4.73;100.00;96033.66;1027872;28;20286;-73